• Join FlightAware (Why Join?)
  • Login
  • US Flag 
03:58PM EDT


 

Airport Tracker/Info


-or-


 

Live Flight TrackerFlight Track Log ✈ GTX137 ✈ 02-May-2014 ✈ KHOU - KADS

Flight Track Log - Related Links

Times and Time Zones

All times are in EDT time to prevent confusion due to time zone crossing. See the GTX137 flight status page for this flight to view local times or setup timezone preferences in your user account.

Time Position Orientation Groundspeed Altitude Reporting Facility
EDT Latitude Longitude Course Direction KTS MPH feet Rate Location/Type
09:20PM 29.6569 -95.2936 313° West 117 135 500  Level Houston Center
09:21PM 29.6711 -95.3111 313° West 118 136 1,100 780 Climbing Houston Center
09:22PM 29.6833 -95.3258 314° West 117 135 1,500 720 Climbing Houston Center
09:22PM 29.6925 -95.3375 312° West 125 144 1,800 720 Climbing Houston Center
09:23PM 29.7072 -95.3553 314° West 119 137 2,300 660 Climbing Houston Center
09:23PM 29.7181 -95.3658 320° Northwest 124 143 2,500 540 Climbing Houston Center
09:24PM 29.7317 -95.3839 311° West 120 138 2,900 540 Climbing Houston Center
09:24PM 29.7397 -95.3967 306° West 129 148 3,100 720 Climbing Houston Center
09:25PM 29.7656 -95.4275 314° West 130 150 3,900 660 Climbing Houston Center
09:26PM 29.7894 -95.4583 312° West 130 150 4,500 360 Climbing Houston Center
09:27PM 29.8044 -95.4761 314° West 126 145 4,600 60 Climbing Houston Center
09:27PM 29.8178 -95.4933 312° West 158 182 4,600 -120 Level Houston Center
09:28PM 29.8411 -95.5222 313° West 149 171 4,500  Descending Houston Center
09:28PM 29.8489 -95.5331 310° West 164 189 4,600 60 Climbing Houston Center
09:29PM 29.8719 -95.5606 314° West 160 184 4,600 -120 Level Houston Center
09:29PM 29.8797 -95.5728 306° West 162 186 4,500  Descending Houston Center
09:30PM 29.9036 -95.5981 317° Northwest 161 185 4,600  Climbing Houston Center
09:30PM 29.9203 -95.6042 342° North 168 193 4,500  Descending Houston Center
09:31PM 29.9486 -95.6139 343° North 162 186 4,600  Climbing Houston Center
09:31PM 29.9594 -95.6186 339° North 164 189 4,500 -120 Descending Houston Center
09:32PM 30.0053 -95.6397 338° Northwest 169 194 4,500  Level Houston Center
09:33PM 30.0489 -95.6564 342° North 167 192 4,500  Level Houston Center
09:34PM 30.0964 -95.6725 344° North 167 192 4,500  Level Houston Center
09:35PM 30.1236 -95.6811 345° North 166 191 4,500  Level Houston Center
09:35PM 30.1397 -95.6892 337° Northwest 166 191 4,500  Level Houston Center
09:36PM 30.1683 -95.6989 344° North 167 192 4,500  Level Houston Center
09:36PM 30.1878 -95.7078 338° Northwest 165 190 4,500  Level Houston Center
09:37PM 30.2197 -95.7192 343° North 165 190 4,500  Level Houston Center
09:37PM 30.2311 -95.7244 338° Northwest 167 192 4,500  Level Houston Center
09:38PM 30.2639 -95.7367 342° North 165 190 4,500  Level Houston Center
09:38PM 30.2769 -95.7431 337° Northwest 166 191 4,500  Level Houston Center
09:39PM 30.3203 -95.7597 342° North 165 190 4,500  Level Houston Center
09:40PM 30.3511 -95.7714 342° North 165 190 4,500  Level Houston Center
09:41PM 30.3947 -95.7878 342° North 165 190 4,500 60 Level Houston Center
09:41PM 30.4075 -95.7956 332° Northwest 165 190 4,600  Climbing Houston Center
09:42PM 30.4386 -95.8053 345° North 166 191 4,500  Descending Houston Center
09:42PM 30.4531 -95.8144 331° Northwest 167 192 4,600 60 Climbing Houston Center
09:43PM 30.4819 -95.8247 343° North 166 191 4,600  Level Houston Center
09:43PM 30.4989 -95.8333 336° Northwest 169 194 4,600  Level Houston Center
09:44PM 30.5264 -95.8433 343° North 167 192 4,600  Level Houston Center
09:45PM 30.5703 -95.8628 339° North 167 192 4,600  Level Houston Center
09:45PM 30.5881 -95.8692 343° North 170 196 4,600  Level Houston Center
09:46PM 30.6153 -95.8803 341° North 168 193 4,600 -60 Level Houston Center
09:47PM 30.6794 -95.9069 340° North 171 197 4,500 -60 Descending Houston Center
09:48PM 30.7072 -95.9172 342° North 168 193 4,500  Level Houston Center
09:48PM 30.7253 -95.9261 337° Northwest 169 194 4,500  Level Houston Center
09:49PM 30.7528 -95.9356 344° North 168 193 4,500  Level Houston Center
09:50PM 30.7978 -95.9517 343° North 168 193 4,500  Level Houston Center
09:51PM 30.8508 -95.9736 340° North 168 193 4,600  Climbing Houston Center
09:52PM 30.8956 -95.9914 341° North 168 193 4,600  Level Houston Center
09:53PM 30.9414 -96.0089 342° North 169 194 4,600 -60 Level Houston Center
09:54PM 30.9856 -96.0267 341° North 169 194 4,500  Descending Houston Center
09:55PM 31.0303 -96.0431 343° North 169 194 4,600  Climbing Houston Center
09:56PM 31.0753 -96.0589 343° North 169 194 4,600  Level Houston Center
09:57PM 31.1175 -96.0756 341° North 168 193 4,600  Level Houston Center
09:58PM 31.1611 -96.0922 342° North 168 193 4,600  Level Houston Center
09:59PM 31.2056 -96.1117 339° North 168 193 4,600 -60 Level Houston Center
10:01PM 31.2569 -96.1339 340° North 168 193 4,500  Descending Houston Center
10:02PM 31.3011 -96.1511 342° North 168 193 4,600  Climbing Houston Center
10:03PM 31.3439 -96.1706 339° North 168 193 4,600  Level Houston Center
10:03PM 31.3814 -96.1850 342° North 168 193 4,600  Level Fort Worth Center
10:04PM 31.4350 -96.2042 343° North 168 193 4,600  Level Fort Worth Center
10:06PM 31.4792 -96.2217 341° North 168 193 4,600  Level Fort Worth Center
10:07PM 31.5231 -96.2378 343° North 168 193 4,600  Level Fort Worth Center
10:08PM 31.5672 -96.2553 341° North 168 193 4,600  Level Fort Worth Center
10:09PM 31.6097 -96.2742 339° North 167 192 4,600  Level Fort Worth Center
10:10PM 31.6544 -96.2903 343° North 167 192 4,600  Level Fort Worth Center
10:11PM 31.6989 -96.3100 339° North 164 189 4,600  Level Fort Worth Center
10:12PM 31.7425 -96.3275 341° North 164 189 4,600  Level Fort Worth Center
10:13PM 31.7856 -96.3467 339° North 164 189 4,600  Level Fort Worth Center
10:14PM 31.8300 -96.3633 342° North 166 191 4,600  Level Fort Worth Center
10:15PM 31.8739 -96.3819 340° North 166 191 4,600  Level Fort Worth Center
10:16PM 31.9169 -96.4019 338° Northwest 167 192 4,600  Level Fort Worth Center
10:17PM 31.9692 -96.4228 341° North 166 191 4,600  Level Fort Worth Center
10:18PM 32.0131 -96.4397 342° North 166 191 4,600  Level Fort Worth Center
10:19PM 32.0561 -96.4558 342° North 165 190 4,600  Level Fort Worth Center
10:20PM 32.0994 -96.4731 341° North 165 190 4,600  Level Fort Worth Center
10:21PM 32.1442 -96.4894 343° North 165 190 4,600  Level Fort Worth Center
10:22PM 32.1878 -96.5064 342° North 165 190 4,600  Level Fort Worth Center
10:23PM 32.2383 -96.5267 341° North 167 192 4,600  Level Fort Worth Center
10:24PM 32.2828 -96.5442 342° North 167 192 4,600  Level Fort Worth Center
10:25PM 32.3258 -96.5633 339° North 168 193 4,600  Level Fort Worth Center
10:26PM 32.3736 -96.5822 342° North 167 192 4,600 -180 Level Fort Worth Center
10:27PM 32.4178 -96.5994 342° North 167 192 4,300 -480 Descending Fort Worth Center
10:28PM 32.4667 -96.6189 341° North 180 207 3,700 -360 Descending Fort Worth Center
10:29PM 32.5128 -96.6394 339° North 179 206 3,600 -60 Descending Fort Worth Center
10:30PM 32.5594 -96.6581 341° North 168 193 3,600  Level Fort Worth Center
10:31PM 32.6025 -96.6781 339° North 167 192 3,600  Level Fort Worth Center
10:32PM 32.6458 -96.6969 340° North 167 192 3,600 -300 Level Fort Worth Center
10:33PM 32.6928 -96.7044 352° North 171 197 3,100 -540 Descending Fort Worth Center
10:34PM 32.7469 -96.6986 North 178 205 2,600 -540 Descending Fort Worth Center
10:35PM 32.7931 -96.6958 North 173 199 2,100 -300 Descending Fort Worth Center
10:36PM 32.8289 -96.7267 324° Northwest 158 182 2,000  Descending Fort Worth Center
10:37PM 32.8581 -96.7603 316° Northwest 149 171 2,100  Climbing Fort Worth Center
10:38PM 32.8819 -96.7994 306° West 139 160 2,100 -300 Level Fort Worth Center
10:39PM 32.9131 -96.8114 342° North 117 135 1,600 -480 Descending Fort Worth Center
10:40PM 32.9439 -96.8256 339° North 118 136 1,200 -420 Descending Fort Worth Center
10:41PM 32.9694 -96.8361 341° North 115 132 800 -420 Descending Fort Worth Center
10:43PM 32.9686 -96.8364 197° South  Level Estimated
10:50PM 32.9686 -96.8364 North  Level Estimated